Time;durP1;ratioP1;P1;durP2;ratioP2;P2;SDS_P1;SDS_P2;PMS_P1;PMS_P2;Temp;Humidity;BMP_temperature;BMP_pressure;BME280_temperature;BME280_humidity;BME280_pressure;Samples;Min_cycle;Max_cycle;Signal;HPM_P1;HPM_P2
2020/12/16 00:00:33;;;;;;;10.68;6.35;;;6.80;99.90;;;;;;1918678;74;21039;-70
2020/12/16 00:02:59;;;;;;;9.55;5.22;;;6.70;99.90;;;;;;1919307;73;21082;-70
2020/12/16 00:05:25;;;;;;;12.43;5.62;;;6.70;99.90;;;;;;1921200;73;21078;-71
2020/12/16 00:07:51;;;;;;;11.68;5.78;;;6.60;99.90;;;;;;1919526;73;21109;-71
2020/12/16 00:10:18;;;;;;;16.87;6.12;;;6.60;99.90;;;;;;1917488;73;21157;-71
2020/12/16 00:12:44;;;;;;;10.98;6.33;;;6.50;99.90;;;;;;1927483;73;21043;-71
2020/12/16 00:15:10;;;;;;;13.53;5.87;;;6.50;99.90;;;;;;1912872;73;21270;-71
2020/12/16 00:17:37;;;;;;;13.22;6.97;;;6.50;99.90;;;;;;1959892;72;21057;-71
2020/12/16 00:20:03;;;;;;;11.30;6.03;;;6.50;99.90;;;;;;1970148;72;21062;-71
2020/12/16 00:22:38;;;;;;;13.08;6.55;;;6.40;99.90;;;;;;1972194;72;21051;-71
2020/12/16 00:25:04;;;;;;;11.38;6.65;;;6.40;99.90;;;;;;1919811;73;21203;-71
2020/12/16 00:27:30;;;;;;;10.35;6.22;;;6.30;99.90;;;;;;1926118;73;21074;-71
2020/12/16 00:29:56;;;;;;;9.08;6.22;;;6.10;99.90;;;;;;1919607;73;21155;-70
2020/12/16 00:32:22;;;;;;;13.25;6.58;;;6.10;99.90;;;;;;1920372;73;21140;-71
2020/12/16 00:34:48;;;;;;;15.63;5.62;;;6.20;99.90;;;;;;1926271;73;21077;-71
2020/12/16 00:37:14;;;;;;;14.00;6.10;;;6.30;99.90;;;;;;1926408;73;21074;-71
2020/12/16 00:39:40;;;;;;;10.98;6.72;;;6.20;99.90;;;;;;1926170;73;21167;-71
2020/12/16 00:42:07;;;;;;;13.80;6.50;;;6.20;99.90;;;;;;1917146;73;21074;-72
2020/12/16 00:44:33;;;;;;;11.15;6.12;;;6.20;99.90;;;;;;1925042;74;21074;-72
2020/12/16 00:46:59;;;;;;;12.85;5.67;;;6.10;99.90;;;;;;1913696;73;21131;-72
2020/12/16 00:49:26;;;;;;;8.20;5.75;;;6.10;99.90;;;;;;1916828;73;21077;-72
2020/12/16 00:51:52;;;;;;;14.80;6.15;;;6.20;99.90;;;;;;1926604;73;21143;-72
2020/12/16 00:54:18;;;;;;;7.97;5.50;;;6.20;99.90;;;;;;1925347;73;21081;-71
2020/12/16 00:56:44;;;;;;;10.20;5.28;;;6.20;99.90;;;;;;1909426;73;21090;-72
2020/12/16 00:59:10;;;;;;;10.10;5.10;;;6.30;99.90;;;;;;1919066;73;21039;-72
2020/12/16 01:01:36;;;;;;;9.88;5.10;;;6.20;99.90;;;;;;1916834;73;21140;-72
2020/12/16 01:04:02;;;;;;;8.85;5.20;;;6.30;99.90;;;;;;1921771;73;21139;-72
2020/12/16 01:06:29;;;;;;;10.93;4.90;;;6.30;99.90;;;;;;1924534;73;21082;-72
2020/12/16 01:08:55;;;;;;;7.03;4.47;;;6.30;99.90;;;;;;1915048;73;21140;-72
2020/12/16 01:11:21;;;;;;;6.72;4.47;;;6.30;99.90;;;;;;1923879;74;21047;-71
2020/12/16 01:13:47;;;;;;;8.65;4.30;;;6.20;99.90;;;;;;1920749;73;21134;-72
2020/12/16 01:16:13;;;;;;;7.42;4.28;;;6.10;99.90;;;;;;1922266;73;21078;-72
2020/12/16 01:18:39;;;;;;;9.08;4.28;;;6.20;99.90;;;;;;1919676;73;21089;-72
2020/12/16 01:21:05;;;;;;;7.90;3.87;;;6.30;99.90;;;;;;1920090;74;21136;-72
2020/12/16 01:23:31;;;;;;;6.28;4.42;;;6.40;99.90;;;;;;1914134;74;21089;-72
2020/12/16 01:25:57;;;;;;;7.22;4.65;;;6.40;99.90;;;;;;1926746;73;21514;-71
2020/12/16 01:28:24;;;;;;;8.78;4.70;;;6.40;99.90;;;;;;1925213;73;21576;-72
2020/12/16 01:30:50;;;;;;;6.78;4.25;;;6.40;99.90;;;;;;1921015;73;21624;-72
2020/12/16 01:33:16;;;;;;;9.00;4.92;;;6.50;99.90;;;;;;1915266;73;21077;-72
2020/12/16 01:35:42;;;;;;;7.70;4.50;;;6.50;99.90;;;;;;1922274;73;21082;-72
2020/12/16 01:38:08;;;;;;;15.23;5.15;;;6.50;99.90;;;;;;1923792;73;21192;-72
2020/12/16 01:40:34;;;;;;;10.18;4.80;;;6.40;99.90;;;;;;1923048;73;21047;-72
2020/12/16 01:43:00;;;;;;;9.58;5.50;;;6.40;99.90;;;;;;1968916;72;21055;-72
2020/12/16 01:45:26;;;;;;;11.90;5.40;;;6.50;99.90;;;;;;1970954;72;21071;-72
2020/12/16 01:47:53;;;;;;;9.33;5.72;;;6.50;99.90;;;;;;1923074;72;21065;-72
2020/12/16 01:50:19;;;;;;;10.28;5.92;;;6.50;99.90;;;;;;1946949;72;21157;-72
2020/12/16 01:52:45;;;;;;;12.98;6.33;;;6.60;99.90;;;;;;1938522;72;21034;-72
2020/12/16 01:55:11;;;;;;;11.08;5.90;;;6.60;99.90;;;;;;1930600;72;21065;-71
2020/12/16 01:57:37;;;;;;;12.75;5.72;;;6.60;99.90;;;;;;1915937;74;21074;-72
2020/12/16 02:00:03;;;;;;;12.18;5.87;;;6.60;99.90;;;;;;1926568;73;21086;-72
2020/12/16 02:02:29;;;;;;;11.75;6.30;;;6.60;99.90;;;;;;1910652;73;21078;-72
2020/12/16 02:04:56;;;;;;;10.38;6.42;;;6.60;99.90;;;;;;1914877;73;21058;-72
2020/12/16 02:07:22;;;;;;;9.28;6.35;;;6.60;99.90;;;;;;1918592;73;21075;-72
2020/12/16 02:09:48;;;;;;;13.95;6.33;;;6.50;99.90;;;;;;1918573;73;21128;-72
2020/12/16 02:12:14;;;;;;;10.53;5.83;;;6.50;99.90;;;;;;1924828;73;21074;-72
2020/12/16 02:14:40;;;;;;;12.82;5.25;;;6.50;99.90;;;;;;1920321;73;21225;-72
2020/12/16 02:17:06;;;;;;;11.70;4.97;;;6.50;99.90;;;;;;1918153;73;21121;-72
2020/12/16 02:19:33;;;;;;;8.58;5.45;;;6.60;99.90;;;;;;1907882;74;21152;-72
2020/12/16 02:21:59;;;;;;;13.28;6.00;;;6.60;99.90;;;;;;1919306;73;21075;-72
2020/12/16 02:24:25;;;;;;;11.22;4.92;;;6.50;99.90;;;;;;1914710;73;21086;-72
2020/12/16 02:26:51;;;;;;;9.60;4.60;;;6.50;99.90;;;;;;1925206;73;21074;-72
2020/12/16 02:29:17;;;;;;;9.40;5.33;;;6.60;99.90;;;;;;1926445;73;21148;-72
2020/12/16 02:31:43;;;;;;;15.10;5.42;;;6.50;99.90;;;;;;1926642;73;21070;-72
2020/12/16 02:34:09;;;;;;;8.18;5.10;;;6.50;99.90;;;;;;1918657;73;21153;-72
2020/12/16 02:36:35;;;;;;;9.80;5.20;;;6.40;99.90;;;;;;1915361;73;21049;-72
2020/12/16 02:39:01;;;;;;;8.60;5.10;;;6.40;99.90;;;;;;1926367;73;21078;-72
2020/12/16 02:41:28;;;;;;;8.20;4.90;;;6.40;99.90;;;;;;1920941;73;21132;-72
2020/12/16 02:43:54;;;;;;;11.20;5.75;;;6.40;99.90;;;;;;1921235;73;21486;-72
2020/12/16 02:46:20;;;;;;;8.25;4.90;;;6.40;99.90;;;;;;1915150;73;21073;-72
2020/12/16 02:48:46;;;;;;;8.28;4.70;;;6.40;99.90;;;;;;1925934;73;21085;-72
2020/12/16 02:51:12;;;;;;;9.20;5.53;;;6.40;99.90;;;;;;1918732;73;21082;-72
2020/12/16 02:53:38;;;;;;;8.53;5.58;;;6.40;99.90;;;;;;1916972;73;21149;-72
2020/12/16 02:56:04;;;;;;;14.85;5.75;;;6.30;99.90;;;;;;1923693;74;21194;-72
2020/12/16 02:58:31;;;;;;;11.38;5.42;;;6.30;99.90;;;;;;1925717;73;21135;-72
2020/12/16 03:00:57;;;;;;;18.15;5.95;;;6.20;99.90;;;;;;1922448;73;21086;-72
2020/12/16 03:03:23;;;;;;;7.58;5.17;;;6.30;99.90;;;;;;1920238;73;21159;-72
2020/12/16 03:05:49;;;;;;;18.10;6.72;;;6.20;99.90;;;;;;1926037;73;21491;-72
2020/12/16 03:08:15;;;;;;;11.55;5.67;;;6.20;99.90;;;;;;1917793;73;21580;-72
2020/12/16 03:10:41;;;;;;;12.33;6.28;;;6.20;99.90;;;;;;1917630;73;21556;-72
2020/12/16 03:13:07;;;;;;;12.37;5.30;;;6.20;99.90;;;;;;1915774;73;21533;-72
2020/12/16 03:15:33;;;;;;;9.78;5.53;;;6.20;99.90;;;;;;1912589;73;21155;-72
2020/12/16 03:18:00;;;;;;;7.05;4.90;;;6.20;99.90;;;;;;1920633;73;21075;-72
2020/12/16 03:20:26;;;;;;;12.68;5.75;;;6.30;99.90;;;;;;1926780;74;21199;-73
2020/12/16 03:22:52;;;;;;;11.60;5.97;;;6.20;99.90;;;;;;1920238;73;21074;-72
2020/12/16 03:25:18;;;;;;;12.33;7.10;;;6.20;99.90;;;;;;1917144;73;21085;-72
2020/12/16 03:27:44;;;;;;;11.15;5.15;;;6.20;99.90;;;;;;1924799;73;21074;-72
2020/12/16 03:30:10;;;;;;;10.03;5.50;;;6.20;99.90;;;;;;1918740;73;21047;-72
2020/12/16 03:32:36;;;;;;;9.28;6.00;;;6.10;99.90;;;;;;1925026;74;21065;-72
2020/12/16 03:35:02;;;;;;;10.35;5.80;;;6.10;99.90;;;;;;1925930;73;21082;-72
2020/12/16 03:37:29;;;;;;;17.37;6.12;;;6.10;99.90;;;;;;1918153;73;21188;-71
2020/12/16 03:39:55;;;;;;;9.30;5.53;;;6.10;99.90;;;;;;1914687;73;21078;-71
2020/12/16 03:42:21;;;;;;;7.62;5.15;;;6.00;99.90;;;;;;1916645;73;21047;-71
2020/12/16 03:44:47;;;;;;;10.48;5.80;;;6.00;99.90;;;;;;1915358;73;21080;-71
2020/12/16 03:47:13;;;;;;;10.23;5.47;;;5.90;99.90;;;;;;1922224;73;21144;-72
2020/12/16 03:49:39;;;;;;;10.13;5.28;;;5.90;99.90;;;;;;1925332;73;21221;-72
2020/12/16 03:52:05;;;;;;;7.92;4.78;;;5.90;99.90;;;;;;1926413;73;21482;-72
2020/12/16 03:54:31;;;;;;;11.30;5.62;;;5.90;99.90;;;;;;1914758;73;21455;-72
2020/12/16 03:56:57;;;;;;;13.18;4.75;;;5.90;99.90;;;;;;1923376;73;21620;-72
2020/12/16 03:59:24;;;;;;;7.30;4.22;;;5.90;99.90;;;;;;1915326;73;21579;-72
2020/12/16 04:01:50;;;;;;;6.22;4.67;;;5.90;99.90;;;;;;1921539;73;21078;-72
2020/12/16 04:04:16;;;;;;;8.00;4.95;;;5.90;99.90;;;;;;1925545;73;21066;-72
2020/12/16 04:06:42;;;;;;;9.50;3.92;;;5.90;99.90;;;;;;1914446;73;21055;-73
2020/12/16 04:09:08;;;;;;;7.75;5.00;;;5.90;99.90;;;;;;1918945;73;21079;-72
2020/12/16 04:11:34;;;;;;;6.42;4.30;;;5.80;99.90;;;;;;1914135;73;21156;-72
2020/12/16 04:14:00;;;;;;;7.37;4.85;;;5.80;99.90;;;;;;1922573;73;21086;-72
2020/12/16 04:16:27;;;;;;;8.50;4.67;;;5.70;99.90;;;;;;1922343;73;21118;-72
2020/12/16 04:18:53;;;;;;;8.00;5.40;;;5.70;99.90;;;;;;1915602;73;21522;-72
2020/12/16 04:21:19;;;;;;;9.43;5.40;;;5.70;99.90;;;;;;1920048;73;21485;-71
2020/12/16 04:23:45;;;;;;;7.15;4.95;;;5.70;99.90;;;;;;1921911;73;21451;-72
2020/12/16 04:26:11;;;;;;;7.55;4.83;;;5.70;99.90;;;;;;1919821;74;21555;-72
2020/12/16 04:28:37;;;;;;;6.00;3.90;;;5.60;99.90;;;;;;1919893;73;21094;-72
2020/12/16 04:31:03;;;;;;;8.15;4.75;;;5.60;99.90;;;;;;1920457;73;21196;-72
2020/12/16 04:33:29;;;;;;;6.92;4.50;;;5.50;99.90;;;;;;1926387;73;21096;-72
2020/12/16 04:35:55;;;;;;;8.80;4.40;;;5.50;99.90;;;;;;1914129;74;21077;-71
2020/12/16 04:38:22;;;;;;;7.45;4.53;;;5.40;99.90;;;;;;1923141;73;21176;-72
2020/12/16 04:40:48;;;;;;;7.85;4.50;;;5.40;99.90;;;;;;1924599;73;21066;-72
2020/12/16 04:43:14;;;;;;;5.17;4.15;;;5.40;99.90;;;;;;1914731;73;21140;-72
2020/12/16 04:45:40;;;;;;;5.80;4.53;;;5.40;99.90;;;;;;1926574;73;21086;-72
2020/12/16 04:48:06;;;;;;;5.40;4.20;;;5.30;99.90;;;;;;1925871;73;21078;-73
2020/12/16 04:50:32;;;;;;;8.15;4.95;;;5.30;99.90;;;;;;1921686;73;21165;-72
2020/12/16 04:52:58;;;;;;;8.50;4.90;;;5.30;99.90;;;;;;1927126;73;21043;-73
2020/12/16 04:55:24;;;;;;;11.25;4.65;;;5.20;99.90;;;;;;1917256;73;21153;-72
2020/12/16 04:57:51;;;;;;;9.78;5.58;;;5.20;99.90;;;;;;1917679;73;21082;-73
2020/12/16 05:00:17;;;;;;;10.88;5.10;;;5.20;99.90;;;;;;1922945;73;21082;-73
2020/12/16 05:02:43;;;;;;;6.22;4.10;;;5.20;99.90;;;;;;1923041;73;21070;-73
2020/12/16 05:05:09;;;;;;;6.05;4.03;;;5.10;99.90;;;;;;1919363;73;21153;-73
2020/12/16 05:07:36;;;;;;;7.12;4.37;;;5.20;99.90;;;;;;1921345;73;21095;-73
2020/12/16 05:10:03;;;;;;;8.53;5.03;;;5.10;99.90;;;;;;1923778;73;21082;-72
2020/12/16 05:12:29;;;;;;;6.80;4.70;;;5.10;99.90;;;;;;1925684;73;21085;-72
2020/12/16 05:14:55;;;;;;;6.72;4.62;;;5.20;99.90;;;;;;1915402;73;21160;-73
2020/12/16 05:17:22;;;;;;;10.53;4.47;;;5.10;99.90;;;;;;1916962;73;21136;-71
2020/12/16 05:19:48;;;;;;;8.20;5.55;;;5.10;99.90;;;;;;1916371;73;21188;-72
2020/12/16 05:22:14;;;;;;;8.95;5.60;;;5.10;99.90;;;;;;1919939;73;21200;-71
2020/12/16 05:24:40;;;;;;;10.30;5.33;;;5.10;99.90;;;;;;1915318;73;21043;-72
2020/12/16 05:27:07;;;;;;;6.62;4.37;;;5.10;99.90;;;;;;1921126;73;21082;-71
2020/12/16 05:29:33;;;;;;;10.63;6.35;;;5.10;99.90;;;;;;1916029;73;21144;-72
2020/12/16 05:31:59;;;;;;;11.53;5.35;;;5.20;99.90;;;;;;1925580;73;21555;-71
2020/12/16 05:34:25;;;;;;;7.45;4.62;;;5.20;99.90;;;;;;1921872;73;21474;-72
2020/12/16 05:36:51;;;;;;;7.28;4.42;;;5.20;99.90;;;;;;1923207;73;21443;-72
2020/12/16 05:39:17;;;;;;;9.30;5.40;;;5.20;99.90;;;;;;1917630;73;21082;-72
2020/12/16 05:41:43;;;;;;;8.28;5.05;;;5.20;99.90;;;;;;1923011;73;21084;-71
2020/12/16 05:44:09;;;;;;;6.83;4.33;;;5.10;99.90;;;;;;1925497;73;21078;-72
2020/12/16 05:46:36;;;;;;;7.40;4.97;;;5.20;99.90;;;;;;1925101;73;21082;-72
2020/12/16 05:49:02;;;;;;;13.13;5.37;;;5.20;99.90;;;;;;1920077;74;21085;-71
2020/12/16 05:51:28;;;;;;;11.97;5.17;;;5.20;99.90;;;;;;1922869;73;21043;-72
2020/12/16 05:53:54;;;;;;;13.03;4.67;;;5.20;99.90;;;;;;1913669;73;21078;-71
2020/12/16 05:56:20;;;;;;;6.85;4.53;;;5.10;99.90;;;;;;1921386;74;21132;-71
2020/12/16 05:58:46;;;;;;;8.23;4.87;;;5.10;99.90;;;;;;1924501;73;21136;-71
2020/12/16 06:01:12;;;;;;;7.17;4.45;;;5.10;99.90;;;;;;1917278;73;21078;-71
2020/12/16 06:03:38;;;;;;;6.45;4.33;;;5.10;99.90;;;;;;1919472;73;21082;-71
2020/12/16 06:06:05;;;;;;;7.50;4.47;;;5.10;99.90;;;;;;1918598;73;21070;-71
2020/12/16 06:08:31;;;;;;;7.60;4.40;;;5.10;99.90;;;;;;1917231;73;21090;-72
2020/12/16 06:10:57;;;;;;;6.28;4.25;;;5.10;99.90;;;;;;1922537;73;21086;-71
2020/12/16 06:13:23;;;;;;;5.58;4.00;;;5.10;99.90;;;;;;1919201;73;21082;-71
2020/12/16 06:15:50;;;;;;;5.12;3.65;;;5.10;99.90;;;;;;1919092;72;21144;-71
2020/12/16 06:18:16;;;;;;;4.37;3.55;;;5.20;99.90;;;;;;1913982;73;21521;-72
2020/12/16 06:20:43;;;;;;;7.12;3.70;;;5.30;99.90;;;;;;1920003;73;21494;-72
2020/12/16 06:23:09;;;;;;;5.58;3.67;;;5.30;99.90;;;;;;1919865;73;21543;-75
2020/12/16 06:25:35;;;;;;;7.55;3.30;;;5.30;99.90;;;;;;1925577;73;21043;-74
2020/12/16 06:28:01;;;;;;;5.50;3.77;;;5.20;99.90;;;;;;1927153;73;21070;-74
2020/12/16 06:30:27;;;;;;;4.67;3.33;;;5.20;99.90;;;;;;1925319;73;21077;-74
2020/12/16 06:32:54;;;;;;;6.30;3.85;;;5.30;99.90;;;;;;1923204;73;21510;-74
2020/12/16 06:35:20;;;;;;;7.05;4.10;;;5.30;99.90;;;;;;1922538;73;21078;-74
2020/12/16 06:37:46;;;;;;;7.08;4.50;;;5.30;99.90;;;;;;1915166;73;21266;-74
2020/12/16 06:40:12;;;;;;;8.03;4.28;;;5.30;99.90;;;;;;1913539;73;21208;-74
2020/12/16 06:42:38;;;;;;;7.33;4.55;;;5.30;99.90;;;;;;1915332;73;21202;-74
2020/12/16 06:45:04;;;;;;;7.03;4.62;;;5.20;99.90;;;;;;1919639;73;21039;-74
2020/12/16 06:47:30;;;;;;;12.53;4.25;;;5.20;99.90;;;;;;1926701;73;21105;-74
2020/12/16 06:49:57;;;;;;;6.45;4.50;;;5.20;99.90;;;;;;1921315;73;21152;-74
2020/12/16 06:52:23;;;;;;;5.08;3.92;;;5.30;99.90;;;;;;1917862;73;21085;-74
2020/12/16 06:54:55;;;;;;;4.95;3.33;;;5.40;99.90;;;;;;1914711;73;21549;-71
2020/12/16 06:57:21;;;;;;;6.28;3.98;;;5.40;99.90;;;;;;1916925;73;21051;-72
2020/12/16 06:59:47;;;;;;;4.53;3.92;;;5.50;99.90;;;;;;1916511;73;21133;-73
2020/12/16 07:02:13;;;;;;;6.65;3.85;;;5.50;99.90;;;;;;1923277;73;21062;-73
2020/12/16 07:04:39;;;;;;;7.75;4.20;;;5.50;99.90;;;;;;1918187;73;21121;-74
2020/12/16 07:07:06;;;;;;;8.70;4.17;;;5.60;99.90;;;;;;1923571;73;21075;-75
2020/12/16 07:09:32;;;;;;;5.95;4.28;;;5.60;99.90;;;;;;1922564;73;21490;-74
2020/12/16 07:11:58;;;;;;;6.90;4.37;;;5.60;99.90;;;;;;1922283;73;21071;-73
2020/12/16 07:14:25;;;;;;;8.13;4.58;;;5.60;99.90;;;;;;1923065;73;21047;-74
2020/12/16 07:16:51;;;;;;;6.15;3.98;;;5.60;99.90;;;;;;1921984;73;21458;-71
2020/12/16 07:19:17;;;;;;;8.10;4.25;;;5.60;99.90;;;;;;1920311;73;21697;-74
2020/12/16 07:21:44;;;;;;;5.97;4.35;;;5.50;99.90;;;;;;1920906;73;21081;-74
2020/12/16 07:24:10;;;;;;;6.28;4.17;;;5.50;99.90;;;;;;1925702;73;21192;-71
2020/12/16 07:26:36;;;;;;;8.35;5.37;;;5.60;99.90;;;;;;1924324;73;21486;-74
2020/12/16 07:29:03;;;;;;;6.75;3.75;;;5.50;99.90;;;;;;1916376;73;21144;-73
2020/12/16 07:31:29;;;;;;;5.40;3.85;;;5.60;99.90;;;;;;1917345;73;21086;-73
2020/12/16 07:33:55;;;;;;;6.45;4.22;;;5.70;99.90;;;;;;1925297;73;21063;-73
2020/12/16 07:36:21;;;;;;;8.88;4.40;;;5.70;99.90;;;;;;1914430;73;21181;-73
2020/12/16 07:38:47;;;;;;;5.75;4.03;;;5.80;99.90;;;;;;1924702;73;21188;-73
2020/12/16 07:41:13;;;;;;;6.22;4.37;;;5.90;99.90;;;;;;1921451;73;21086;-76
2020/12/16 07:43:39;;;;;;;7.80;4.08;;;5.90;99.90;;;;;;1921148;73;21159;-75
2020/12/16 07:46:06;;;;;;;10.82;3.90;;;5.80;99.90;;;;;;1923170;73;21144;-75
2020/12/16 07:48:32;;;;;;;8.93;4.58;;;5.80;99.90;;;;;;1919192;73;21255;-75
2020/12/16 07:50:58;;;;;;;4.80;3.47;;;5.90;99.90;;;;;;1922302;73;21083;-77
2020/12/16 07:53:24;;;;;;;6.37;4.17;;;5.80;99.90;;;;;;1918564;73;21043;-76
2020/12/16 07:55:50;;;;;;;6.53;4.20;;;5.80;99.90;;;;;;1920240;73;21081;-76
2020/12/16 07:58:16;;;;;;;9.13;4.87;;;5.80;99.90;;;;;;1918193;73;21250;-74
2020/12/16 08:00:42;;;;;;;5.97;4.30;;;5.70;99.90;;;;;;1917212;73;21141;-76
2020/12/16 08:03:08;;;;;;;11.00;4.75;;;5.70;99.90;;;;;;1918871;74;21131;-74
2020/12/16 08:05:35;;;;;;;6.72;4.45;;;5.70;99.90;;;;;;1926214;73;21046;-74
2020/12/16 08:08:01;;;;;;;8.38;4.65;;;5.80;99.90;;;;;;1917825;73;21160;-76
2020/12/16 08:10:27;;;;;;;14.75;5.17;;;5.80;99.90;;;;;;1922175;73;21155;-75
2020/12/16 08:12:54;;;;;;;9.20;4.62;;;5.80;99.90;;;;;;1920394;73;21168;-75
2020/12/16 08:15:20;;;;;;;6.87;4.83;;;5.80;99.90;;;;;;1913886;73;21073;-74
2020/12/16 08:17:46;;;;;;;7.05;4.97;;;5.70;99.90;;;;;;1921551;73;21208;-75
2020/12/16 08:20:12;;;;;;;6.83;4.87;;;5.70;99.90;;;;;;1919548;73;21082;-74
2020/12/16 08:22:39;;;;;;;14.58;5.42;;;5.70;99.90;;;;;;1923686;73;21152;-75
2020/12/16 08:25:14;;;;;;;9.23;4.67;;;5.80;99.90;;;;;;1920940;73;21072;-74
2020/12/16 08:27:33;;;;;;;8.03;4.78;;;5.80;99.90;;;;;;1911247;73;21538;-74
2020/12/16 08:29:59;;;;;;;7.55;5.12;;;5.90;99.90;;;;;;1918216;73;21555;-75
2020/12/16 08:32:25;;;;;;;7.20;4.67;;;6.00;99.90;;;;;;1912694;73;21078;-74
2020/12/16 08:34:51;;;;;;;8.58;5.10;;;6.00;99.90;;;;;;1918828;73;21078;-74
2020/12/16 08:37:17;;;;;;;15.60;5.20;;;5.90;99.90;;;;;;1963877;72;21062;-75
2020/12/16 08:39:43;;;;;;;10.08;5.85;;;6.00;99.90;;;;;;1967630;72;21067;-75
2020/12/16 08:42:10;;;;;;;8.80;5.58;;;6.00;99.90;;;;;;1975873;72;21076;-75
2020/12/16 08:44:36;;;;;;;11.83;5.22;;;6.00;99.90;;;;;;1975658;72;21062;-75
2020/12/16 08:47:03;;;;;;;9.58;5.58;;;6.10;99.90;;;;;;1954629;72;21131;-75
2020/12/16 08:49:30;;;;;;;9.80;5.92;;;6.30;99.90;;;;;;1959367;72;21115;-75
2020/12/16 08:51:56;;;;;;;13.88;6.95;;;6.30;99.90;;;;;;1950197;72;21070;-75
2020/12/16 08:54:22;;;;;;;10.10;6.22;;;6.40;99.90;;;;;;1908256;73;21204;-75
2020/12/16 08:56:48;;;;;;;9.95;6.33;;;6.50;99.90;;;;;;1904714;73;21043;-75
2020/12/16 08:59:14;;;;;;;10.68;5.62;;;6.60;99.90;;;;;;1927437;73;21062;-75
2020/12/16 09:01:40;;;;;;;13.83;6.58;;;6.50;99.90;;;;;;1951442;73;21066;-75
2020/12/16 09:04:06;;;;;;;8.50;5.28;;;6.60;99.90;;;;;;1932870;73;21152;-75
2020/12/16 09:06:32;;;;;;;8.10;5.28;;;6.80;99.90;;;;;;1957027;72;21123;-75
2020/12/16 09:08:59;;;;;;;12.78;5.25;;;6.70;99.90;;;;;;1946453;72;21144;-75
2020/12/16 09:11:25;;;;;;;9.45;5.15;;;6.70;99.90;;;;;;1963642;72;21048;-75
2020/12/16 09:13:51;;;;;;;9.45;5.22;;;6.60;99.90;;;;;;1962845;72;21067;-75
2020/12/16 09:16:17;;;;;;;12.23;5.60;;;6.70;99.90;;;;;;1973099;72;21071;-75
2020/12/16 09:18:45;;;;;;;8.70;5.37;;;6.80;99.90;;;;;;1961982;72;21062;-75
2020/12/16 09:21:11;;;;;;;9.40;5.67;;;6.80;99.90;;;;;;1961552;72;21107;-76
2020/12/16 09:23:37;;;;;;;11.18;5.70;;;7.10;99.90;;;;;;1957360;72;21184;-75
2020/12/16 09:26:03;;;;;;;10.98;5.28;;;7.20;99.90;;;;;;1954245;73;21184;-75
2020/12/16 09:28:29;;;;;;;10.43;5.50;;;7.60;99.90;;;;;;1967124;72;21032;-75
2020/12/16 09:30:55;;;;;;;11.08;5.25;;;7.90;99.90;;;;;;1968943;72;21127;-75
2020/12/16 09:33:22;;;;;;;12.93;5.83;;;8.30;99.90;;;;;;1965414;72;21066;-76
2020/12/16 09:35:48;;;;;;;9.00;4.87;;;8.60;99.90;;;;;;1977139;72;21070;-75
2020/12/16 09:38:14;;;;;;;12.58;4.85;;;8.60;99.90;;;;;;1938779;72;21418;-75
2020/12/16 09:40:40;;;;;;;12.78;5.97;;;9.00;99.90;;;;;;1949159;73;21135;-75
2020/12/16 09:43:09;;;;;;;8.80;4.83;;;9.20;99.90;;;;;;1934828;73;21042;-75
2020/12/16 09:45:34;;;;;;;13.08;5.33;;;9.40;99.90;;;;;;1948050;72;21573;-76
2020/12/16 09:48:00;;;;;;;11.73;5.47;;;9.60;99.90;;;;;;1929820;73;21200;-76
2020/12/16 09:50:26;;;;;;;9.35;4.40;;;9.80;99.90;;;;;;1920577;73;21148;-75
2020/12/16 09:52:52;;;;;;;13.40;5.28;;;10.00;99.90;;;;;;1931463;73;21142;-76
2020/12/16 09:55:23;;;;;;;7.78;4.12;;;9.80;99.90;;;;;;1947668;72;21032;-75
2020/12/16 09:57:46;;;;;;;6.33;4.22;;;10.10;99.90;;;;;;1929902;73;21039;-75
2020/12/16 10:00:12;;;;;;;4.70;3.33;;;10.00;99.90;;;;;;1935391;73;21067;-76
2020/12/16 10:02:38;;;;;;;8.30;4.05;;;10.30;99.90;;;;;;1939440;72;21069;-76
2020/12/16 10:05:05;;;;;;;7.55;4.00;;;10.10;99.90;;;;;;1925708;73;21070;-75
2020/12/16 10:07:31;;;;;;;5.58;3.05;;;9.90;99.90;;;;;;1958851;72;21127;-75
2020/12/16 10:09:57;;;;;;;7.30;3.12;;;9.90;99.90;;;;;;1965244;72;21079;-76
2020/12/16 10:12:23;;;;;;;9.48;3.95;;;9.90;99.90;;;;;;1955200;72;21474;-76
2020/12/16 10:14:49;;;;;;;5.35;2.90;;;10.10;99.90;;;;;;1921624;73;21557;-77
2020/12/16 10:17:16;;;;;;;5.92;3.22;;;10.10;99.90;;;;;;1955214;72;21474;-77
2020/12/16 10:19:42;;;;;;;13.35;3.75;;;10.30;99.90;;;;;;1950965;72;21955;-77
2020/12/16 10:22:10;;;;;;;11.80;3.80;;;10.40;99.90;;;;;;1922949;73;21598;-77
2020/12/16 10:24:36;;;;;;;7.53;3.70;;;10.50;99.90;;;;;;1956114;72;21115;-78
2020/12/16 10:27:02;;;;;;;4.65;3.30;;;10.90;99.90;;;;;;1944780;72;21148;-78
2020/12/16 10:29:28;;;;;;;9.13;3.40;;;11.10;99.90;;;;;;1932166;73;21090;-78
2020/12/16 10:31:54;;;;;;;6.25;3.15;;;10.50;99.90;;;;;;1944206;73;21070;-78
2020/12/16 10:34:20;;;;;;;5.47;3.50;;;10.00;99.90;;;;;;1920854;73;21135;-77
2020/12/16 10:36:47;;;;;;;9.58;3.40;;;10.20;99.90;;;;;;1923017;73;21141;-78
2020/12/16 10:39:13;;;;;;;7.17;3.50;;;10.20;99.90;;;;;;1958587;72;21039;-77
2020/12/16 10:41:39;;;;;;;6.80;3.08;;;10.40;99.90;;;;;;1930009;73;21066;-77
2020/12/16 10:44:05;;;;;;;6.90;3.27;;;11.20;99.90;;;;;;1942059;72;21120;-78
2020/12/16 10:46:31;;;;;;;6.65;3.37;;;11.60;99.90;;;;;;1926456;73;21073;-76
2020/12/16 10:48:57;;;;;;;7.90;3.75;;;12.00;99.90;;;;;;1968772;72;21122;-76
2020/12/16 10:51:23;;;;;;;8.28;3.77;;;12.20;99.90;;;;;;1967552;72;21127;-76
2020/12/16 10:53:49;;;;;;;5.47;3.12;;;11.30;99.90;;;;;;1965404;72;21057;-77
2020/12/16 10:56:16;;;;;;;7.25;3.50;;;11.60;99.90;;;;;;1953440;72;21069;-76
2020/12/16 10:58:42;;;;;;;9.78;3.50;;;12.30;99.90;;;;;;1953935;72;21192;-77
2020/12/16 11:01:08;;;;;;;6.35;2.83;;;12.40;99.90;;;;;;1947293;72;21082;-77
2020/12/16 11:03:34;;;;;;;8.15;3.62;;;12.60;99.90;;;;;;1954153;72;21140;-77
2020/12/16 11:06:00;;;;;;;6.17;3.60;;;12.70;99.90;;;;;;1944509;72;21181;-77
2020/12/16 11:08:26;;;;;;;5.33;3.00;;;12.60;99.90;;;;;;1937238;72;21039;-77
2020/12/16 11:10:52;;;;;;;6.67;3.35;;;12.30;99.90;;;;;;1953028;72;21053;-79
2020/12/16 11:13:18;;;;;;;8.83;3.58;;;12.60;99.90;;;;;;1935267;72;21070;-78
2020/12/16 11:15:45;;;;;;;8.00;3.95;;;12.60;99.90;;;;;;1896741;73;21151;-75
2020/12/16 11:18:11;;;;;;;7.90;3.50;;;13.30;99.90;;;;;;1937505;72;21135;-76
2020/12/16 11:20:37;;;;;;;3.58;2.47;;;13.60;99.90;;;;;;1924400;73;21034;-76
2020/12/16 11:23:03;;;;;;;8.30;4.00;;;13.60;99.90;;;;;;1959029;72;21069;-75
2020/12/16 11:25:29;;;;;;;4.85;3.02;;;14.10;99.90;;;;;;1904863;73;21136;-75
2020/12/16 11:27:55;;;;;;;5.70;2.83;;;14.40;99.90;;;;;;1947909;72;21080;-79
2020/12/16 11:30:21;;;;;;;5.78;3.58;;;14.40;99.90;;;;;;1934609;72;21126;-80
2020/12/16 11:32:47;;;;;;;4.20;2.70;;;14.50;99.90;;;;;;1944203;73;21082;-80
2020/12/16 11:35:14;;;;;;;9.53;3.17;;;14.40;99.90;;;;;;1954796;72;21279;-78
2020/12/16 11:37:43;;;;;;;6.28;2.90;;;14.20;99.90;;;;;;1928232;73;21517;-79
2020/12/16 11:40:08;;;;;;;6.20;2.98;;;13.70;99.90;;;;;;1957902;72;21036;-77
2020/12/16 11:42:34;;;;;;;9.65;3.27;;;14.30;99.90;;;;;;1970759;72;21059;-78
2020/12/16 11:45:00;;;;;;;5.12;3.15;;;14.30;99.90;;;;;;1971505;72;21078;-77
2020/12/16 11:47:26;;;;;;;4.58;2.55;;;14.50;99.90;;;;;;1955071;72;21059;-78
2020/12/16 11:49:52;;;;;;;4.83;2.67;;;14.10;99.90;;;;;;1963710;72;21036;-78
2020/12/16 11:52:18;;;;;;;7.83;3.35;;;14.20;99.90;;;;;;1963683;72;21167;-78
2020/12/16 11:54:44;;;;;;;4.70;2.55;;;14.00;99.90;;;;;;1963170;72;21084;-79
2020/12/16 11:57:10;;;;;;;5.25;3.10;;;14.40;99.90;;;;;;1932705;72;21180;-78
2020/12/16 11:59:37;;;;;;;7.30;3.77;;;14.50;99.90;;;;;;1929135;72;21493;-79
2020/12/16 12:02:04;;;;;;;5.78;3.40;;;14.80;99.90;;;;;;1932453;72;21445;-78
2020/12/16 12:04:31;;;;;;;8.00;3.52;;;15.40;99.90;;;;;;1953557;72;21086;-79
2020/12/16 12:06:57;;;;;;;6.37;3.10;;;15.60;99.90;;;;;;1941503;72;21540;-77
2020/12/16 12:09:23;;;;;;;6.85;3.10;;;15.90;99.90;;;;;;1940537;72;21299;-78
2020/12/16 12:11:49;;;;;;;9.45;3.72;;;15.80;99.90;;;;;;1944678;72;21065;-77
2020/12/16 12:14:15;;;;;;;7.45;3.62;;;15.10;99.90;;;;;;1948390;72;21078;-79
2020/12/16 12:16:43;;;;;;;6.53;3.40;;;15.50;99.90;;;;;;1935185;72;21067;-77
2020/12/16 12:19:09;;;;;;;6.47;3.35;;;16.00;99.90;;;;;;1948324;72;21510;-78
2020/12/16 12:21:35;;;;;;;7.55;3.55;;;16.20;99.90;;;;;;1947497;72;21463;-77
2020/12/16 12:24:01;;;;;;;13.88;4.35;;;16.90;99.90;;;;;;1946180;72;21653;-80
2020/12/16 12:26:28;;;;;;;9.98;4.03;;;16.70;99.90;;;;;;1943415;72;21478;-78
2020/12/16 12:28:54;;;;;;;9.38;4.17;;;16.40;99.90;;;;;;1954898;72;21064;-79
2020/12/16 12:31:20;;;;;;;10.82;4.25;;;16.10;99.90;;;;;;1958311;72;21034;-78
2020/12/16 12:33:46;;;;;;;6.42;3.70;;;15.60;99.90;;;;;;1918787;73;21065;-78
2020/12/16 12:36:12;;;;;;;15.08;4.20;;;15.60;99.90;;;;;;1955997;72;21070;-78
2020/12/16 12:38:38;;;;;;;14.18;3.72;;;16.20;99.90;;;;;;1914125;73;21281;-77
2020/12/16 12:41:04;;;;;;;11.03;4.28;;;16.50;99.90;;;;;;1934656;72;21113;-78
2020/12/16 12:43:30;;;;;;;7.55;3.35;;;16.10;99.90;;;;;;1938329;72;21061;-78